sensor_id;sensor_type;location;lat;lon;timestamp;pressure;altitude;pressure_sealevel;temperature;humidity
21803;BME280;18591;47.080;22.214;2023-08-20T00:00:40;99756.16;;;29.53;49.90
21803;BME280;18591;47.080;22.214;2023-08-20T00:02:46;99754.59;;;29.50;49.99
21803;BME280;18591;47.080;22.214;2023-08-20T00:04:48;99745.25;;;29.51;49.39
21803;BME280;18591;47.080;22.214;2023-08-20T00:06:52;99748.91;;;29.52;49.39
21803;BME280;18591;47.080;22.214;2023-08-20T00:08:54;99749.22;;;29.49;49.24
21803;BME280;18591;47.080;22.214;2023-08-20T00:10:56;99750.44;;;29.46;49.27
21803;BME280;18591;47.080;22.214;2023-08-20T00:12:59;99755.09;;;29.46;49.64
21803;BME280;18591;47.080;22.214;2023-08-20T00:15:03;99752.88;;;29.41;49.26
21803;BME280;18591;47.080;22.214;2023-08-20T00:17:09;99759.97;;;29.36;49.91
21803;BME280;18591;47.080;22.214;2023-08-20T00:19:11;99760.31;;;29.33;49.56
21803;BME280;18591;47.080;22.214;2023-08-20T00:21:15;99752.53;;;29.28;49.62
21803;BME280;18591;47.080;22.214;2023-08-20T00:23:17;99760.34;;;29.24;49.53
21803;BME280;18591;47.080;22.214;2023-08-20T00:25:20;99757.03;;;29.21;49.63
21803;BME280;18591;47.080;22.214;2023-08-20T00:27:23;99753.75;;;29.17;49.74
21803;BME280;18591;47.080;22.214;2023-08-20T00:29:25;99752.19;;;29.15;49.74
21803;BME280;18591;47.080;22.214;2023-08-20T00:31:27;99758.59;;;29.15;50.04
21803;BME280;18591;47.080;22.214;2023-08-20T00:33:31;99760.84;;;29.12;50.04
21803;BME280;18591;47.080;22.214;2023-08-20T00:35:34;99753.78;;;29.09;50.11
21803;BME280;18591;47.080;22.214;2023-08-20T00:37:36;99761.38;;;29.07;49.73
21803;BME280;18591;47.080;22.214;2023-08-20T00:39:39;99758.75;;;29.05;50.17
21803;BME280;18591;47.080;22.214;2023-08-20T00:41:41;99758.38;;;29.00;49.89
21803;BME280;18591;47.080;22.214;2023-08-20T00:43:44;99763.25;;;28.98;49.79
21803;BME280;18591;47.080;22.214;2023-08-20T00:45:46;99757.88;;;28.97;49.65
21803;BME280;18591;47.080;22.214;2023-08-20T00:47:49;99769.44;;;28.92;49.75
21803;BME280;18591;47.080;22.214;2023-08-20T00:49:52;99757.19;;;28.86;49.97
21803;BME280;18591;47.080;22.214;2023-08-20T00:51:55;99750.28;;;28.82;49.65
21803;BME280;18591;47.080;22.214;2023-08-20T00:53:58;99754.25;;;28.80;50.16
21803;BME280;18591;47.080;22.214;2023-08-20T00:56:01;99753.53;;;28.78;50.25
21803;BME280;18591;47.080;22.214;2023-08-20T00:58:05;99753.91;;;28.75;50.09
21803;BME280;18591;47.080;22.214;2023-08-20T01:00:08;99748.53;;;28.73;50.45
21803;BME280;18591;47.080;22.214;2023-08-20T01:02:13;99759.59;;;28.73;50.35
21803;BME280;18591;47.080;22.214;2023-08-20T01:04:16;99762.69;;;28.70;50.27
21803;BME280;18591;47.080;22.214;2023-08-20T01:06:39;99755.06;;;28.64;50.04
21803;BME280;18591;47.080;22.214;2023-08-20T01:08:53;99759.56;;;28.65;50.36
21803;BME280;18591;47.080;22.214;2023-08-20T01:11:05;99765.44;;;28.62;50.80
21803;BME280;18591;47.080;22.214;2023-08-20T01:13:09;99758.34;;;28.59;50.29
21803;BME280;18591;47.080;22.214;2023-08-20T01:15:11;99752.28;;;28.56;50.29
21803;BME280;18591;47.080;22.214;2023-08-20T01:17:17;99760.91;;;28.53;50.75
21803;BME280;18591;47.080;22.214;2023-08-20T01:19:22;99761.41;;;28.48;50.13
21803;BME280;18591;47.080;22.214;2023-08-20T01:21:38;99757.41;;;28.42;51.40
21803;BME280;18591;47.080;22.214;2023-08-20T01:28:37;99760.34;;;27.98;52.28
21803;BME280;18591;47.080;22.214;2023-08-20T01:30:41;99759.50;;;27.98;52.17
21803;BME280;18591;47.080;22.214;2023-08-20T01:32:49;99761.88;;;27.93;52.39
21803;BME280;18591;47.080;22.214;2023-08-20T01:34:52;99763.91;;;27.83;52.78
21803;BME280;18591;47.080;22.214;2023-08-20T01:36:55;99765.28;;;27.87;52.67
21803;BME280;18591;47.080;22.214;2023-08-20T01:38:58;99769.28;;;27.92;52.15
21803;BME280;18591;47.080;22.214;2023-08-20T01:41:00;99760.00;;;28.01;51.74
21803;BME280;18591;47.080;22.214;2023-08-20T01:43:03;99764.19;;;28.06;51.28
21803;BME280;18591;47.080;22.214;2023-08-20T01:45:06;99764.00;;;28.07;51.51
21803;BME280;18591;47.080;22.214;2023-08-20T01:47:09;99762.28;;;28.06;51.20
21803;BME280;18591;47.080;22.214;2023-08-20T01:49:11;99760.53;;;28.05;51.55
21803;BME280;18591;47.080;22.214;2023-08-20T01:51:13;99767.81;;;28.06;51.74
21803;BME280;18591;47.080;22.214;2023-08-20T01:53:16;99764.34;;;28.04;52.07
21803;BME280;18591;47.080;22.214;2023-08-20T01:55:18;99770.84;;;27.95;52.10
21803;BME280;18591;47.080;22.214;2023-08-20T01:57:21;99767.72;;;27.90;52.12
21803;BME280;18591;47.080;22.214;2023-08-20T01:59:26;99772.88;;;27.85;52.11
21803;BME280;18591;47.080;22.214;2023-08-20T02:01:31;99771.28;;;27.82;52.23
21803;BME280;18591;47.080;22.214;2023-08-20T02:03:36;99775.09;;;27.81;52.15
21803;BME280;18591;47.080;22.214;2023-08-20T02:05:43;99781.13;;;27.85;51.85
21803;BME280;18591;47.080;22.214;2023-08-20T02:07:45;99778.22;;;27.86;51.62
21803;BME280;18591;47.080;22.214;2023-08-20T02:09:48;99772.56;;;27.88;51.73
21803;BME280;18591;47.080;22.214;2023-08-20T02:11:51;99771.38;;;27.90;51.59
21803;BME280;18591;47.080;22.214;2023-08-20T02:13:53;99774.97;;;27.91;51.61
21803;BME280;18591;47.080;22.214;2023-08-20T02:16:03;99776.66;;;27.84;52.28
21803;BME280;18591;47.080;22.214;2023-08-20T02:18:07;99769.88;;;27.78;52.03
21803;BME280;18591;47.080;22.214;2023-08-20T02:20:09;99768.25;;;27.67;52.37
21803;BME280;18591;47.080;22.214;2023-08-20T02:22:12;99766.50;;;27.66;52.37
21803;BME280;18591;47.080;22.214;2023-08-20T02:24:14;99770.00;;;27.68;52.02
21803;BME280;18591;47.080;22.214;2023-08-20T02:26:17;99769.84;;;27.70;51.71
21803;BME280;18591;47.080;22.214;2023-08-20T02:28:19;99767.94;;;27.70;52.02
21803;BME280;18591;47.080;22.214;2023-08-20T02:30:22;99769.13;;;27.68;52.32
21803;BME280;18591;47.080;22.214;2023-08-20T02:32:24;99764.78;;;27.65;52.01
21803;BME280;18591;47.080;22.214;2023-08-20T02:34:26;99772.91;;;27.67;52.10
21803;BME280;18591;47.080;22.214;2023-08-20T02:36:29;99774.78;;;27.66;51.82
21803;BME280;18591;47.080;22.214;2023-08-20T02:38:31;99769.28;;;27.66;51.90
21803;BME280;18591;47.080;22.214;2023-08-20T02:40:39;99771.84;;;27.60;51.84
21803;BME280;18591;47.080;22.214;2023-08-20T02:42:42;99773.41;;;27.62;51.58
21803;BME280;18591;47.080;22.214;2023-08-20T02:44:44;99769.22;;;27.58;51.60
21803;BME280;18591;47.080;22.214;2023-08-20T02:46:46;99765.44;;;27.59;51.85
21803;BME280;18591;47.080;22.214;2023-08-20T02:48:49;99772.03;;;27.40;53.02
21803;BME280;18591;47.080;22.214;2023-08-20T02:50:53;99771.25;;;27.12;54.28
21803;BME280;18591;47.080;22.214;2023-08-20T02:52:56;99775.44;;;27.16;53.66
21803;BME280;18591;47.080;22.214;2023-08-20T02:54:58;99777.34;;;27.15;53.84
21803;BME280;18591;47.080;22.214;2023-08-20T02:57:01;99768.06;;;26.99;53.88
21803;BME280;18591;47.080;22.214;2023-08-20T02:59:03;99767.91;;;27.00;53.97
21803;BME280;18591;47.080;22.214;2023-08-20T03:01:06;99773.41;;;27.00;53.87
21803;BME280;18591;47.080;22.214;2023-08-20T03:03:08;99768.91;;;26.99;53.96
21803;BME280;18591;47.080;22.214;2023-08-20T03:05:13;99768.28;;;27.05;53.43
21803;BME280;18591;47.080;22.214;2023-08-20T03:07:16;99768.69;;;27.10;53.32
21803;BME280;18591;47.080;22.214;2023-08-20T03:09:18;99776.44;;;27.15;53.36
21803;BME280;18591;47.080;22.214;2023-08-20T03:11:21;99766.31;;;27.15;53.13
21803;BME280;18591;47.080;22.214;2023-08-20T03:13:23;99773.56;;;27.17;52.77
21803;BME280;18591;47.080;22.214;2023-08-20T03:15:26;99774.41;;;27.17;53.27
21803;BME280;18591;47.080;22.214;2023-08-20T03:17:29;99779.06;;;27.17;53.17
21803;BME280;18591;47.080;22.214;2023-08-20T03:19:33;99784.84;;;27.05;53.74
21803;BME280;18591;47.080;22.214;2023-08-20T03:21:37;99785.31;;;27.01;53.59
21803;BME280;18591;47.080;22.214;2023-08-20T03:23:39;99781.69;;;27.00;53.30
21803;BME280;18591;47.080;22.214;2023-08-20T03:25:41;99776.47;;;26.97;53.41
21803;BME280;18591;47.080;22.214;2023-08-20T03:27:44;99779.22;;;26.97;53.23
21803;BME280;18591;47.080;22.214;2023-08-20T03:29:46;99783.41;;;27.01;53.21
21803;BME280;18591;47.080;22.214;2023-08-20T03:31:49;99779.94;;;26.99;53.29
21803;BME280;18591;47.080;22.214;2023-08-20T03:33:51;99778.75;;;27.02;53.03
21803;BME280;18591;47.080;22.214;2023-08-20T03:35:54;99775.16;;;27.01;53.06
21803;BME280;18591;47.080;22.214;2023-08-20T03:38:01;99780.81;;;27.00;52.93
21803;BME280;18591;47.080;22.214;2023-08-20T03:40:03;99785.47;;;26.99;52.76
21803;BME280;18591;47.080;22.214;2023-08-20T03:42:07;99777.97;;;26.91;53.70
21803;BME280;18591;47.080;22.214;2023-08-20T03:44:09;99781.19;;;26.87;53.49
21803;BME280;18591;47.080;22.214;2023-08-20T03:46:11;99779.22;;;26.79;53.68
21803;BME280;18591;47.080;22.214;2023-08-20T03:48:16;99778.84;;;26.74;53.96
21803;BME280;18591;47.080;22.214;2023-08-20T03:50:19;99785.06;;;26.76;54.15
21803;BME280;18591;47.080;22.214;2023-08-20T03:52:21;99782.75;;;26.71;54.02
21803;BME280;18591;47.080;22.214;2023-08-20T03:54:24;99782.38;;;26.66;54.48
21803;BME280;18591;47.080;22.214;2023-08-20T03:56:26;99784.97;;;26.68;54.71
21803;BME280;18591;47.080;22.214;2023-08-20T03:58:29;99783.81;;;26.70;54.04
21803;BME280;18591;47.080;22.214;2023-08-20T04:00:31;99786.81;;;26.77;54.02
21803;BME280;18591;47.080;22.214;2023-08-20T04:02:34;99786.63;;;26.79;53.74
21803;BME280;18591;47.080;22.214;2023-08-20T04:04:37;99791.81;;;26.82;53.96
21803;BME280;18591;47.080;22.214;2023-08-20T04:06:39;99790.66;;;26.84;53.83
21803;BME280;18591;47.080;22.214;2023-08-20T04:08:42;99783.28;;;26.85;53.61
21803;BME280;18591;47.080;22.214;2023-08-20T04:10:45;99788.59;;;26.86;53.62
21803;BME280;18591;47.080;22.214;2023-08-20T04:12:47;99786.41;;;26.90;53.79
21803;BME280;18591;47.080;22.214;2023-08-20T04:14:50;99784.84;;;26.87;53.64
21803;BME280;18591;47.080;22.214;2023-08-20T04:16:52;99785.72;;;26.88;53.73
21803;BME280;18591;47.080;22.214;2023-08-20T04:18:54;99778.44;;;26.87;54.19
21803;BME280;18591;47.080;22.214;2023-08-20T04:20:57;99785.91;;;26.77;54.47
21803;BME280;18591;47.080;22.214;2023-08-20T04:23:00;99788.69;;;26.77;54.43
21803;BME280;18591;47.080;22.214;2023-08-20T04:25:02;99791.16;;;26.80;54.40
21803;BME280;18591;47.080;22.214;2023-08-20T04:27:07;99783.28;;;26.85;54.30
21803;BME280;18591;47.080;22.214;2023-08-20T04:29:11;99785.47;;;26.81;54.78
21803;BME280;18591;47.080;22.214;2023-08-20T04:31:13;99787.34;;;26.81;54.90
21803;BME280;18591;47.080;22.214;2023-08-20T04:33:29;99787.03;;;26.84;54.75
21803;BME280;18591;47.080;22.214;2023-08-20T04:35:33;99785.78;;;26.78;55.00
21803;BME280;18591;47.080;22.214;2023-08-20T04:37:35;99789.78;;;26.84;54.80
21803;BME280;18591;47.080;22.214;2023-08-20T04:39:39;99787.59;;;26.87;54.75
21803;BME280;18591;47.080;22.214;2023-08-20T04:41:41;99785.53;;;26.89;55.16
21803;BME280;18591;47.080;22.214;2023-08-20T04:43:47;99789.31;;;26.88;55.28
21803;BME280;18591;47.080;22.214;2023-08-20T04:45:52;99790.38;;;26.87;55.28
21803;BME280;18591;47.080;22.214;2023-08-20T04:47:55;99790.91;;;26.91;55.18
21803;BME280;18591;47.080;22.214;2023-08-20T04:49:58;99789.72;;;26.93;54.92
21803;BME280;18591;47.080;22.214;2023-08-20T04:52:00;99788.38;;;26.98;55.25
21803;BME280;18591;47.080;22.214;2023-08-20T04:54:04;99783.66;;;26.72;55.96
21803;BME280;18591;47.080;22.214;2023-08-20T04:56:06;99793.66;;;26.73;56.06
21803;BME280;18591;47.080;22.214;2023-08-20T04:58:10;99785.38;;;26.73;56.19
21803;BME280;18591;47.080;22.214;2023-08-20T05:00:12;99797.44;;;26.90;55.50
21803;BME280;18591;47.080;22.214;2023-08-20T05:02:19;99790.25;;;26.97;55.09
21803;BME280;18591;47.080;22.214;2023-08-20T05:04:27;99794.84;;;27.06;55.07
21803;BME280;18591;47.080;22.214;2023-08-20T05:06:30;99790.91;;;27.09;55.09
21803;BME280;18591;47.080;22.214;2023-08-20T05:08:32;99787.66;;;27.13;55.00
21803;BME280;18591;47.080;22.214;2023-08-20T05:10:36;99791.22;;;27.24;55.15
21803;BME280;18591;47.080;22.214;2023-08-20T05:12:39;99790.44;;;27.31;54.52
21803;BME280;18591;47.080;22.214;2023-08-20T05:14:42;99791.53;;;27.39;54.79
21803;BME280;18591;47.080;22.214;2023-08-20T05:16:45;99789.22;;;27.52;54.65
21803;BME280;18591;47.080;22.214;2023-08-20T05:18:47;99796.44;;;27.53;54.50
21803;BME280;18591;47.080;22.214;2023-08-20T05:20:49;99787.50;;;27.59;54.43
21803;BME280;18591;47.080;22.214;2023-08-20T05:22:52;99790.44;;;27.57;54.51
21803;BME280;18591;47.080;22.214;2023-08-20T05:24:54;99794.09;;;27.40;55.52
21803;BME280;18591;47.080;22.214;2023-08-20T05:29:07;99777.59;;;27.48;55.86
21803;BME280;18591;47.080;22.214;2023-08-20T05:31:10;99790.06;;;27.52;56.34
21803;BME280;18591;47.080;22.214;2023-08-20T05:33:15;99788.66;;;27.48;56.95
21803;BME280;18591;47.080;22.214;2023-08-20T05:35:18;99792.91;;;27.43;57.19
21803;BME280;18591;47.080;22.214;2023-08-20T05:37:20;99794.44;;;27.37;57.09
21803;BME280;18591;47.080;22.214;2023-08-20T05:39:23;99800.78;;;27.55;56.53
21803;BME280;18591;47.080;22.214;2023-08-20T05:41:28;99795.88;;;27.67;56.14
21803;BME280;18591;47.080;22.214;2023-08-20T05:43:31;99806.09;;;27.75;55.59
21803;BME280;18591;47.080;22.214;2023-08-20T05:45:33;99809.81;;;27.66;56.27
21803;BME280;18591;47.080;22.214;2023-08-20T05:47:36;99812.25;;;27.69;56.09
21803;BME280;18591;47.080;22.214;2023-08-20T05:49:41;99811.91;;;27.72;56.40
21803;BME280;18591;47.080;22.214;2023-08-20T05:51:44;99800.81;;;27.82;56.17
21803;BME280;18591;47.080;22.214;2023-08-20T05:53:46;99811.50;;;27.85;56.07
21803;BME280;18591;47.080;22.214;2023-08-20T05:55:49;99811.78;;;27.99;55.60
21803;BME280;18591;47.080;22.214;2023-08-20T05:57:51;99802.50;;;28.09;55.74
21803;BME280;18591;47.080;22.214;2023-08-20T05:59:54;99808.28;;;28.23;55.28
21803;BME280;18591;47.080;22.214;2023-08-20T06:01:57;99801.88;;;28.23;56.04
21803;BME280;18591;47.080;22.214;2023-08-20T06:03:59;99810.75;;;28.35;55.61
21803;BME280;18591;47.080;22.214;2023-08-20T06:06:02;99817.41;;;28.50;55.87
21803;BME280;18591;47.080;22.214;2023-08-20T06:08:08;99815.34;;;28.60;55.48
21803;BME280;18591;47.080;22.214;2023-08-20T06:10:11;99812.44;;;28.70;54.35
21803;BME280;18591;47.080;22.214;2023-08-20T06:12:14;99808.50;;;28.81;53.98
21803;BME280;18591;47.080;22.214;2023-08-20T06:14:16;99811.97;;;28.91;53.90
21803;BME280;18591;47.080;22.214;2023-08-20T06:16:18;99809.72;;;28.95;53.60
21803;BME280;18591;47.080;22.214;2023-08-20T06:18:21;99816.47;;;29.00;53.27
21803;BME280;18591;47.080;22.214;2023-08-20T06:20:23;99808.59;;;29.14;53.67
21803;BME280;18591;47.080;22.214;2023-08-20T06:22:26;99807.88;;;29.20;53.45
21803;BME280;18591;47.080;22.214;2023-08-20T06:24:28;99811.00;;;29.33;53.55
21803;BME280;18591;47.080;22.214;2023-08-20T06:26:30;99816.34;;;29.43;53.46
21803;BME280;18591;47.080;22.214;2023-08-20T06:28:33;99820.50;;;29.55;53.45
21803;BME280;18591;47.080;22.214;2023-08-20T06:30:35;99829.84;;;29.62;53.25
21803;BME280;18591;47.080;22.214;2023-08-20T06:32:38;99826.38;;;29.77;53.00
21803;BME280;18591;47.080;22.214;2023-08-20T06:34:41;99827.78;;;29.81;52.38
21803;BME280;18591;47.080;22.214;2023-08-20T06:36:43;99829.13;;;29.93;52.85
21803;BME280;18591;47.080;22.214;2023-08-20T06:38:46;99827.59;;;29.90;52.47
21803;BME280;18591;47.080;22.214;2023-08-20T06:40:48;99827.91;;;30.04;51.94
21803;BME280;18591;47.080;22.214;2023-08-20T06:42:52;99833.25;;;30.13;51.69
21803;BME280;18591;47.080;22.214;2023-08-20T06:44:54;99833.38;;;30.20;51.71
21803;BME280;18591;47.080;22.214;2023-08-20T06:46:57;99833.19;;;30.30;51.00
21803;BME280;18591;47.080;22.214;2023-08-20T06:49:02;99831.78;;;30.42;51.40
21803;BME280;18591;47.080;22.214;2023-08-20T06:51:11;99831.03;;;30.48;50.28
21803;BME280;18591;47.080;22.214;2023-08-20T06:53:14;99843.09;;;30.64;50.40
21803;BME280;18591;47.080;22.214;2023-08-20T06:55:16;99839.06;;;30.74;50.03
21803;BME280;18591;47.080;22.214;2023-08-20T06:57:19;99842.50;;;30.85;50.24
21803;BME280;18591;47.080;22.214;2023-08-20T06:59:21;99849.22;;;30.90;49.64
21803;BME280;18591;47.080;22.214;2023-08-20T07:01:24;99847.97;;;31.01;49.09
21803;BME280;18591;47.080;22.214;2023-08-20T07:03:27;99847.69;;;31.11;49.47
21803;BME280;18591;47.080;22.214;2023-08-20T07:05:29;99856.28;;;31.24;49.17
21803;BME280;18591;47.080;22.214;2023-08-20T07:07:32;99853.06;;;31.35;48.70
21803;BME280;18591;47.080;22.214;2023-08-20T07:09:35;99857.56;;;31.44;48.42
21803;BME280;18591;47.080;22.214;2023-08-20T07:11:37;99867.06;;;31.50;47.48
21803;BME280;18591;47.080;22.214;2023-08-20T07:13:40;99865.91;;;31.59;47.39
21803;BME280;18591;47.080;22.214;2023-08-20T07:15:42;99865.84;;;31.67;47.63
21803;BME280;18591;47.080;22.214;2023-08-20T07:17:44;99865.84;;;31.67;44.63
21803;BME280;18591;47.080;22.214;2023-08-20T07:19:47;99866.09;;;31.81;46.20
21803;BME280;18591;47.080;22.214;2023-08-20T07:21:50;99870.81;;;31.95;46.37
21803;BME280;18591;47.080;22.214;2023-08-20T07:23:52;99864.59;;;32.08;46.42
21803;BME280;18591;47.080;22.214;2023-08-20T07:26:05;99866.94;;;32.19;45.02
21803;BME280;18591;47.080;22.214;2023-08-20T07:28:08;99867.88;;;32.26;45.49
21803;BME280;18591;47.080;22.214;2023-08-20T07:30:11;99869.50;;;32.36;45.22
21803;BME280;18591;47.080;22.214;2023-08-20T07:32:14;99870.25;;;32.44;45.10
21803;BME280;18591;47.080;22.214;2023-08-20T07:34:16;99872.78;;;32.54;45.33
21803;BME280;18591;47.080;22.214;2023-08-20T07:36:20;99862.44;;;32.63;44.60
21803;BME280;18591;47.080;22.214;2023-08-20T07:38:25;99870.09;;;32.75;44.60
21803;BME280;18591;47.080;22.214;2023-08-20T07:40:28;99875.16;;;32.87;44.31
21803;BME280;18591;47.080;22.214;2023-08-20T07:42:30;99870.13;;;32.97;44.53
21803;BME280;18591;47.080;22.214;2023-08-20T07:44:33;99873.94;;;33.11;45.03
21803;BME280;18591;47.080;22.214;2023-08-20T07:46:35;99874.91;;;33.18;43.51
21803;BME280;18591;47.080;22.214;2023-08-20T07:48:38;99873.09;;;33.32;44.20
21803;BME280;18591;47.080;22.214;2023-08-20T07:50:41;99875.38;;;33.43;43.25
21803;BME280;18591;47.080;22.214;2023-08-20T07:52:43;99873.31;;;33.52;42.94
21803;BME280;18591;47.080;22.214;2023-08-20T07:54:45;99874.72;;;33.63;43.59
21803;BME280;18591;47.080;22.214;2023-08-20T07:56:48;99876.75;;;33.75;42.30
21803;BME280;18591;47.080;22.214;2023-08-20T07:58:50;99872.78;;;33.85;42.88
21803;BME280;18591;47.080;22.214;2023-08-20T08:00:53;99872.44;;;33.94;42.34
21803;BME280;18591;47.080;22.214;2023-08-20T08:02:55;99879.56;;;34.03;42.23
21803;BME280;18591;47.080;22.214;2023-08-20T08:04:58;99876.47;;;34.13;42.41
21803;BME280;18591;47.080;22.214;2023-08-20T08:07:00;99874.13;;;34.17;42.46
21803;BME280;18591;47.080;22.214;2023-08-20T08:09:19;99875.19;;;34.16;41.48
21803;BME280;18591;47.080;22.214;2023-08-20T08:11:23;99876.78;;;34.32;42.32
21803;BME280;18591;47.080;22.214;2023-08-20T08:13:26;99861.81;;;34.39;41.88
21803;BME280;18591;47.080;22.214;2023-08-20T08:15:28;99860.53;;;34.42;41.66
21803;BME280;18591;47.080;22.214;2023-08-20T08:17:31;99863.63;;;34.54;41.72
21803;BME280;18591;47.080;22.214;2023-08-20T08:19:33;99869.47;;;34.59;41.41
21803;BME280;18591;47.080;22.214;2023-08-20T08:21:36;99866.94;;;34.71;41.71
21803;BME280;18591;47.080;22.214;2023-08-20T08:23:38;99867.22;;;34.82;41.63
21803;BME280;18591;47.080;22.214;2023-08-20T08:25:40;99865.97;;;34.92;40.83
21803;BME280;18591;47.080;22.214;2023-08-20T08:27:43;99867.91;;;34.98;41.38
21803;BME280;18591;47.080;22.214;2023-08-20T08:30:01;99866.28;;;35.10;40.90
21803;BME280;18591;47.080;22.214;2023-08-20T08:32:03;99871.66;;;35.18;39.94
21803;BME280;18591;47.080;22.214;2023-08-20T08:34:06;99870.81;;;35.24;40.29
21803;BME280;18591;47.080;22.214;2023-08-20T08:36:08;99869.75;;;35.32;39.77
21803;BME280;18591;47.080;22.214;2023-08-20T08:38:10;99875.34;;;35.39;40.14
21803;BME280;18591;47.080;22.214;2023-08-20T08:40:13;99876.22;;;35.46;39.74
21803;BME280;18591;47.080;22.214;2023-08-20T08:42:16;99867.63;;;35.54;39.53
21803;BME280;18591;47.080;22.214;2023-08-20T08:44:21;99866.81;;;35.60;39.55
21803;BME280;18591;47.080;22.214;2023-08-20T08:46:25;99867.88;;;35.66;39.21
21803;BME280;18591;47.080;22.214;2023-08-20T08:48:27;99861.00;;;35.68;39.30
21803;BME280;18591;47.080;22.214;2023-08-20T08:50:31;99865.09;;;35.72;38.72
21803;BME280;18591;47.080;22.214;2023-08-20T08:52:36;99862.31;;;35.72;38.28
21803;BME280;18591;47.080;22.214;2023-08-20T08:54:39;99863.81;;;35.82;38.62
21803;BME280;18591;47.080;22.214;2023-08-20T08:56:44;99865.94;;;35.86;38.69
21803;BME280;18591;47.080;22.214;2023-08-20T08:58:47;99869.84;;;35.85;38.27
21803;BME280;18591;47.080;22.214;2023-08-20T09:00:49;99865.97;;;35.93;38.44
21803;BME280;18591;47.080;22.214;2023-08-20T09:02:52;99866.59;;;36.02;38.25
21803;BME280;18591;47.080;22.214;2023-08-20T09:04:54;99872.00;;;36.10;38.21
21803;BME280;18591;47.080;22.214;2023-08-20T09:06:57;99876.91;;;36.14;38.11
21803;BME280;18591;47.080;22.214;2023-08-20T09:09:06;99874.78;;;36.23;37.69
21803;BME280;18591;47.080;22.214;2023-08-20T09:11:09;99880.53;;;36.35;38.11
21803;BME280;18591;47.080;22.214;2023-08-20T09:13:11;99875.59;;;36.44;37.76
21803;BME280;18591;47.080;22.214;2023-08-20T09:15:13;99879.44;;;36.49;38.02
21803;BME280;18591;47.080;22.214;2023-08-20T09:17:16;99884.38;;;36.54;37.97
21803;BME280;18591;47.080;22.214;2023-08-20T09:19:19;99882.28;;;36.56;37.43
21803;BME280;18591;47.080;22.214;2023-08-20T09:21:29;99888.28;;;36.59;36.35
21803;BME280;18591;47.080;22.214;2023-08-20T09:23:32;99874.03;;;36.68;36.71
21803;BME280;18591;47.080;22.214;2023-08-20T09:25:34;99871.22;;;36.74;36.48
21803;BME280;18591;47.080;22.214;2023-08-20T09:27:40;99869.66;;;36.78;35.86
21803;BME280;18591;47.080;22.214;2023-08-20T09:29:56;99861.91;;;36.80;35.07
21803;BME280;18591;47.080;22.214;2023-08-20T09:32:02;99863.41;;;36.83;34.95
21803;BME280;18591;47.080;22.214;2023-08-20T09:34:04;99872.03;;;36.81;35.05
21803;BME280;18591;47.080;22.214;2023-08-20T09:36:07;99872.00;;;36.88;34.93
21803;BME280;18591;47.080;22.214;2023-08-20T09:38:10;99863.34;;;36.96;35.42
21803;BME280;18591;47.080;22.214;2023-08-20T09:40:12;99860.72;;;37.01;34.93
21803;BME280;18591;47.080;22.214;2023-08-20T09:42:15;99861.59;;;37.09;35.01
21803;BME280;18591;47.080;22.214;2023-08-20T09:44:19;99854.69;;;37.11;34.59
21803;BME280;18591;47.080;22.214;2023-08-20T09:46:24;99859.16;;;37.19;34.98
21803;BME280;18591;47.080;22.214;2023-08-20T09:48:27;99854.84;;;37.23;34.53
21803;BME280;18591;47.080;22.214;2023-08-20T09:50:31;99855.44;;;37.25;33.68
21803;BME280;18591;47.080;22.214;2023-08-20T09:52:40;99853.53;;;37.25;34.36
21803;BME280;18591;47.080;22.214;2023-08-20T09:55:07;99854.16;;;37.27;33.40
21803;BME280;18591;47.080;22.214;2023-08-20T09:57:14;99851.94;;;37.36;33.68
21803;BME280;18591;47.080;22.214;2023-08-20T09:59:19;99854.66;;;37.49;34.75
21803;BME280;18591;47.080;22.214;2023-08-20T10:01:21;99861.94;;;37.57;34.28
21803;BME280;18591;47.080;22.214;2023-08-20T10:03:24;99850.34;;;37.54;33.02
21803;BME280;18591;47.080;22.214;2023-08-20T10:05:27;99849.88;;;37.57;33.79
21803;BME280;18591;47.080;22.214;2023-08-20T10:07:30;99843.81;;;37.60;34.41
21803;BME280;18591;47.080;22.214;2023-08-20T10:09:38;99850.88;;;37.69;34.17
21803;BME280;18591;47.080;22.214;2023-08-20T10:11:44;99858.34;;;37.75;34.24
21803;BME280;18591;47.080;22.214;2023-08-20T10:13:47;99851.66;;;37.76;34.10
21803;BME280;18591;47.080;22.214;2023-08-20T10:15:51;99837.88;;;37.75;33.59
21803;BME280;18591;47.080;22.214;2023-08-20T10:17:57;99846.03;;;37.76;33.79
21803;BME280;18591;47.080;22.214;2023-08-20T10:20:02;99838.91;;;37.80;34.01
21803;BME280;18591;47.080;22.214;2023-08-20T10:22:06;99842.81;;;37.79;33.66
21803;BME280;18591;47.080;22.214;2023-08-20T10:24:09;99837.59;;;37.83;32.87
21803;BME280;18591;47.080;22.214;2023-08-20T10:26:14;99843.03;;;37.78;31.50
21803;BME280;18591;47.080;22.214;2023-08-20T10:28:20;99840.00;;;37.79;31.69
21803;BME280;18591;47.080;22.214;2023-08-20T10:30:25;99835.88;;;37.82;32.00
21803;BME280;18591;47.080;22.214;2023-08-20T10:32:47;99834.22;;;37.74;31.21
21803;BME280;18591;47.080;22.214;2023-08-20T10:34:50;99835.72;;;37.77;32.36
21803;BME280;18591;47.080;22.214;2023-08-20T10:36:56;99840.00;;;37.79;32.00
21803;BME280;18591;47.080;22.214;2023-08-20T10:39:04;99830.38;;;37.68;31.26
21803;BME280;18591;47.080;22.214;2023-08-20T10:41:08;99825.81;;;37.74;31.97
21803;BME280;18591;47.080;22.214;2023-08-20T10:43:25;99827.31;;;37.77;32.26
21803;BME280;18591;47.080;22.214;2023-08-20T10:45:28;99830.66;;;37.85;32.59
21803;BME280;18591;47.080;22.214;2023-08-20T10:47:41;99823.78;;;37.81;32.24
21803;BME280;18591;47.080;22.214;2023-08-20T10:49:46;99825.28;;;37.84;32.04
21803;BME280;18591;47.080;22.214;2023-08-20T10:51:52;99827.00;;;37.85;32.52
21803;BME280;18591;47.080;22.214;2023-08-20T10:56:16;99820.72;;;37.89;32.01